• Join FlightAware (Why Join?)
  • Login
  • US Flag 
06:28AM EDT


 

Airport Tracker/Info


-or-


 

Live Flight TrackerFlight Track Log ✈ XOJ552 ✈ 09-May-2013 ✈ KVNY - KRDU

Flight Track Log - Related Links

Times and Time Zones

All times are in EDT time to prevent confusion due to time zone crossing. See the XOJ552 flight status page for this flight to view local times or setup timezone preferences in your user account.

Time Position Orientation Groundspeed Altitude Reporting Facility
EDT Latitude Longitude Course Direction KTS MPH feet Rate Location/Type
12:56PM 34.1500 -118.4500 77° East 187 215 2,900  Level Southern California TRACON
12:57PM 34.2258 -118.4025 27° Northeast 222 255 8,200 3,180 Climbing Los Angeles Center
12:58PM 34.2975 -118.3875 10° North 257 296 11,400 2,760 Climbing Los Angeles Center
12:59PM 34.3828 -118.3611 14° North 311 358 14,000 1,260 Climbing Los Angeles Center
01:00PM 34.4694 -118.3203 21° North 330 380 14,100 1,560 Climbing Los Angeles Center
01:01PM 34.6287 -117.9840 77° East  Level FlightAware Approximate
01:01PM 34.5278 -118.2306 52° Northeast 337 388 17,300  Level Los Angeles Center
01:02PM 34.5853 -118.1386 53° Northeast 338 389 20,800 2,100 Climbing Los Angeles Center
01:04PM 34.6358 -118.0147 64° Northeast 355 409 21,700 1,320 Climbing Los Angeles Center
01:05PM 34.6492 -117.8972 82° East 355 409 23,600 2,160 Climbing Los Angeles Center
01:06PM 34.6622 -117.7772 82° East 359 413 26,200 2,400 Climbing Los Angeles Center
01:07PM 34.6756 -117.6533 83° East 368 423 28,600 1,980 Climbing Los Angeles Center
01:08PM 34.6886 -117.5247 83° East 380 437 30,400 1,920 Climbing Los Angeles Center
01:09PM 34.7061 -117.3642 82° East 401 461 32,600 1,860 Climbing Los Angeles Center
01:10PM 34.7203 -117.2286 83° East 408 470 34,300 1,320 Climbing Los Angeles Center
01:11PM 34.7347 -117.0900 83° East 416 479 35,400 1,020 Climbing Los Angeles Center
01:12PM 34.7494 -116.9444 83° East 434 499 36,500 1,140 Climbing Los Angeles Center
01:13PM 34.7642 -116.7972 83° East 443 510 37,800 1,260 Climbing Los Angeles Center
01:14PM 34.7819 -116.6214 83° East 440 506 39,200 1,020 Climbing Los Angeles Center
01:15PM 34.7950 -116.4744 84° East 440 506 40,000 720 Climbing Los Angeles Center
01:16PM 34.7956 -116.3253 90° East 443 510 40,800 480 Climbing Los Angeles Center
01:17PM 34.7922 -116.1739 91° East 448 516 41,000 60 Climbing Los Angeles Center
01:18PM 34.7919 -115.9850 90° East 463 533 41,000  Level Los Angeles Center
01:19PM 34.7900 -115.7919 91° East 474 545 41,000  Level Los Angeles Center
01:20PM 34.7869 -115.6322 91° East 474 545 41,000  Level Los Angeles Center
01:22PM 34.7825 -115.3364 91° East 475 547 41,000  Level Albuquerque Center
01:23PM 34.7806 -115.1708 91° East 482 555 41,000  Level Albuquerque Center
01:24PM 34.7783 -114.9717 91° East 489 563 41,000  Level Albuquerque Center
01:25PM 34.7750 -114.8114 91° East 488 562 41,000  Level Albuquerque Center
01:26PM 34.7719 -114.6506 91° East 483 556 41,000  Level Albuquerque Center
01:27PM 34.7686 -114.4883 91° East 481 554 41,000  Level Albuquerque Center
01:28PM 34.7633 -114.3281 92° East 480 552 41,000  Level Albuquerque Center
01:29PM 34.7592 -114.1325 91° East 480 552 41,000  Level Albuquerque Center
01:31PM 34.7536 -113.9736 92° East 481 554 41,000  Level Los Angeles Center
01:32PM 34.7492 -113.8183 92° East 481 554 41,000  Level Albuquerque Center
01:33PM 34.7703 -113.6581 81° East 485 558 41,000  Level Albuquerque Center
01:34PM 34.7950 -113.4983 79° East 485 558 41,000  Level Albuquerque Center
01:35PM 34.8236 -113.3067 80° East 486 559 41,000  Level Albuquerque Center
01:36PM 34.8486 -113.1461 79° East 488 562 41,000  Level Albuquerque Center
01:37PM 34.8733 -112.9853 79° East 489 563 41,000  Level Albuquerque Center
01:38PM 34.8981 -112.8261 79° East 488 562 41,000  Level Albuquerque Center
01:39PM 34.9208 -112.6644 80° East 489 563 41,000  Level Albuquerque Center
01:40PM 34.9497 -112.4725 80° East 488 562 41,000  Level Albuquerque Center
01:41PM 34.9731 -112.3111 80° East 489 563 41,000  Level Albuquerque Center
01:42PM 34.9964 -112.1511 80° East 486 559 41,000  Level Albuquerque Center
01:43PM 35.0194 -111.9900 80° East 486 559 41,000  Level Albuquerque Center
01:44PM 35.0467 -111.7972 80° East 486 559 41,000  Level Albuquerque Center
01:45PM 35.0672 -111.6533 80° East 485 558 41,000  Level Albuquerque Center
01:46PM 35.0903 -111.4894 80° East 488 562 41,000  Level Albuquerque Center
01:47PM 35.1167 -111.2936 81° East 487 560 41,000  Level Albuquerque Center
01:48PM 35.1378 -111.1303 81° East 487 560 41,000  Level Albuquerque Center
01:49PM 35.1606 -110.9611 81° East 487 560 41,000  Level Albuquerque Center
01:50PM 35.1828 -110.8058 80° East 486 559 41,000  Level Albuquerque Center
01:51PM 35.2056 -110.6228 81° East 487 560 41,000  Level Albuquerque Center
01:52PM 35.2261 -110.4672 81° East 486 559 41,000  Level Albuquerque Center
01:53PM 35.2508 -110.2844 81° East 488 562 41,000  Level Albuquerque Center
01:54PM 35.2706 -110.1278 81° East 488 562 41,000  Level Albuquerque Center
01:55PM 35.2936 -109.9456 81° East 486 559 41,000  Level Albuquerque Center
01:56PM 35.3133 -109.7878 81° East 489 563 41,000  Level Albuquerque Center
01:57PM 35.3361 -109.6039 81° East 491 565 41,000  Level Albuquerque Center
01:58PM 35.3553 -109.4461 81° East 490 564 41,000  Level Albuquerque Center
01:59PM 35.3772 -109.2631 82° East 489 563 41,000  Level Albuquerque Center
02:01PM 35.3967 -109.1050 81° East 492 566 41,000  Level Albuquerque Center
02:02PM 35.4189 -108.9208 82° East 492 566 41,000  Level Albuquerque Center
02:03PM 35.4364 -108.7633 82° East 491 565 41,000  Level Albuquerque Center
02:04PM 35.4578 -108.5794 82° East 491 565 41,000  Level Albuquerque Center
02:05PM 35.4761 -108.4231 82° East 489 563 41,000  Level Albuquerque Center
02:06PM 35.4967 -108.2403 82° East 487 560 41,000  Level Albuquerque Center
02:07PM 35.5144 -108.0836 82° East 487 560 41,000  Level Albuquerque Center
02:08PM 35.5333 -107.9011 83° East 485 558 41,000  Level Albuquerque Center
02:09PM 35.5497 -107.7447 83° East 483 556 41,000  Level Albuquerque Center
02:10PM 35.5656 -107.5878 83° East 484 557 41,000  Level Albuquerque Center
02:11PM 35.5847 -107.4047 83° East 485 558 41,000  Level Albuquerque Center
02:12PM 35.6014 -107.2478 83° East 485 558 41,000  Level Albuquerque Center
02:13PM 35.6208 -107.0611 83° East 487 560 41,000  Level Albuquerque Center
02:14PM 35.6383 -106.8936 83° East 489 563 41,000  Level Albuquerque Center
02:15PM 35.6553 -106.7194 83° East 489 563 41,000  Level Albuquerque Center
02:16PM 35.6700 -106.5619 83° East 487 560 41,000  Level Albuquerque Center
02:17PM 35.6881 -106.3778 83° East 486 559 41,000  Level Albuquerque Center
02:18PM 35.7031 -106.2200 83° East 485 558 41,000  Level Albuquerque Center
02:19PM 35.7178 -106.0617 83° East 492 566 41,000  Level Albuquerque Center
02:20PM 35.7317 -105.8961 84° East 488 562 41,000  Level Albuquerque Center
02:21PM 35.7511 -105.6972 83° East 488 562 41,000  Level Albuquerque Center
02:22PM 35.7653 -105.5369 84° East 490 564 41,000  Level Albuquerque Center
02:23PM 35.7781 -105.3689 85° East 489 563 41,000  Level Albuquerque Center
02:24PM 35.7919 -105.1997 84° East 490 564 41,000  Level Albuquerque Center
02:25PM 35.8039 -105.0322 85° East 487 560 41,000  Level Albuquerque Center
02:26PM 35.8219 -104.8342 84° East 491 565 41,000  Level Albuquerque Center
02:27PM 35.8364 -104.6656 84° East 489 563 41,000  Level Albuquerque Center
02:28PM 35.8494 -104.4969 84° East 488 562 41,000  Level Albuquerque Center
02:29PM 35.8619 -104.3275 85° East 490 564 41,000  Level Albuquerque Center
02:30PM 35.8756 -104.1586 84° East 489 563 41,000  Level Albuquerque Center
02:31PM 35.8883 -103.9900 85° East 489 563 41,000  Level Albuquerque Center
02:32PM 35.9011 -103.8211 85° East 489 563 41,000  Level Albuquerque Center
02:34PM 35.9133 -103.6517 85° East 488 562 41,000  Level Albuquerque Center
02:35PM 35.9253 -103.4842 85° East 486 559 41,000  Level Albuquerque Center
02:36PM 35.9369 -103.3164 85° East 485 558 41,000  Level Albuquerque Center
02:37PM 35.9492 -103.1206 86° East 486 559 41,000  Level Albuquerque Center
02:38PM 35.9606 -102.9522 85° East 487 560 41,000  Level Albuquerque Center
02:39PM 35.9719 -102.7903 85° East 487 560 41,000  Level Albuquerque Center
02:40PM 35.9825 -102.6222 86° East 490 564 41,000  Level Albuquerque Center
02:41PM 35.9931 -102.4542 86° East 491 565 41,000  Level Albuquerque Center
02:42PM 36.0036 -102.2875 85° East 487 560 41,000  Level Albuquerque Center
02:43PM 36.0133 -102.1178 86° East 492 566 41,000  Level Albuquerque Center
02:44PM 36.0250 -101.9161 86° East 490 564 41,000  Level Albuquerque Center
02:45PM 36.0342 -101.7469 86° East 491 565 41,000  Level Albuquerque Center
02:46PM 36.0442 -101.5772 86° East 492 566 41,000  Level Albuquerque Center
02:47PM 36.0531 -101.4103 86° East 488 562 41,000  Level Albuquerque Center
02:48PM 36.0600 -101.2583 87° East 487 560 41,000  Level Albuquerque Center
02:49PM 36.0700 -101.0572 86° East 487 560 41,000  Level Albuquerque Center
02:50PM 36.0792 -100.8897 86° East 488 562 41,000  Level Albuquerque Center
02:51PM 36.0867 -100.7217 87° East 488 562 41,000  Level Albuquerque Center
02:52PM 36.0942 -100.5556 87° East 485 558 41,000  Level Albuquerque Center
02:53PM 36.1028 -100.3872 86° East 488 562 41,000  Level Albuquerque Center
02:54PM 36.1108 -100.2175 87° East 492 566 41,000  Level Albuquerque Center
02:55PM 36.1153 -100.1178 87° East 489 563 41,000  Level Kansas City Center
02:56PM 36.1228 -99.9139 87° East 492 566 41,000  Level Kansas City Center
02:57PM 36.1297 -99.7431 87° East 494 568 41,000  Level Kansas City Center
02:58PM 36.1347 -99.5728 88° East 494 568 41,000  Level Kansas City Center
02:59PM 36.1422 -99.4014 87° East 494 568 41,000  Level Kansas City Center
03:00PM 36.1483 -99.2369 87° East 495 570 41,000  Level Kansas City Center
03:01PM 36.1533 -99.0672 88° East 497 572 41,000  Level Kansas City Center
03:02PM 36.1600 -98.8633 88° East 493 567 41,000  Level Kansas City Center
03:03PM 36.1650 -98.7078 88° East 494 568 41,000  Level Kansas City Center
03:04PM 36.1697 -98.5350 88° East 497 572 41,000  Level Kansas City Center
03:05PM 36.1753 -98.3636 88° East 498 573 41,000  Level Kansas City Center
03:06PM 36.1803 -98.1572 88° East 498 573 41,000  Level Kansas City Center
03:07PM 36.1842 -98.0089 88° East 496 571 41,000  Level Kansas City Center
03:08PM 36.1886 -97.8378 88° East 497 572 41,000  Level Kansas City Center
03:09PM 36.1925 -97.6317 89° East 499 574 41,000  Level Kansas City Center
03:10PM 36.1958 -97.4608 89° East 496 571 41,000  Level Kansas City Center
03:11PM 36.1994 -97.2867 88° East 502 578 41,000  Level Kansas City Center
03:12PM 36.2022 -97.1122 89° East 504 580 41,000  Level Kansas City Center
03:13PM 36.2050 -96.9372 89° East 506 582 41,000  Level Kansas City Center
03:14PM 36.2078 -96.7625 89° East 507 583 41,000  Level Kansas City Center
03:15PM 36.2100 -96.5728 89° East 509 586 41,000  Level Kansas City Center
03:16PM 36.2119 -96.3969 89° East 511 588 41,000  Level Kansas City Center
03:17PM 36.2136 -96.2217 89° East 511 588 41,000  Level Kansas City Center
03:19PM 36.2156 -96.0117 89° East 509 586 41,000  Level Kansas City Center
03:20PM 36.2167 -95.8386 89° East 507 583 41,000  Level Kansas City Center
03:21PM 36.2181 -95.6761 89° East 506 582 41,000  Level Kansas City Center
03:22PM 36.2189 -95.5014 90° East 508 585 41,000  Level Kansas City Center
03:23PM 36.2203 -95.2908 89° East 510 587 41,000  Level Kansas City Center
03:24PM 36.2200 -95.1139 90° East 513 590 41,000  Level Kansas City Center
03:25PM 36.2189 -94.9333 90° East 518 596 41,000  Level Kansas City Center
03:26PM 36.2186 -94.7569 90° East 516 594 41,000 240 Level Kansas City Center
03:27PM 36.2178 -94.5831 90° East 509 586 41,500 900 Climbing Kansas City Center
03:27PM 36.2153 -94.4883 92° East 507 583 42,400 1,440 Climbing Memphis Center
03:28PM 36.2144 -94.3183 90° East 494 568 43,600 960 Climbing Memphis Center
03:29PM 36.2133 -94.1589 90° East 482 555 44,400 660 Climbing Memphis Center
03:30PM 36.2119 -93.9969 91° East 475 547 45,000 300 Climbing Memphis Center
03:31PM 36.2081 -93.8347 92° East 469 540 45,000  Level Memphis Center
03:32PM 36.2106 -93.6700 89° East 474 545 45,000  Level Memphis Center
03:33PM 36.2086 -93.5028 91° East 480 552 45,000  Level Memphis Center
03:34PM 36.2067 -93.3331 91° East 485 558 45,000  Level Memphis Center
03:35PM 36.2019 -93.1708 92° East 480 552 45,000  Level Memphis Center
03:36PM 36.2014 -93.0036 90° East 475 547 45,000  Level Memphis Center
03:37PM 36.1986 -92.8364 91° East 480 552 45,000  Level Memphis Center
03:38PM 36.1933 -92.6742 92° East 475 547 45,000  Level Memphis Center
03:39PM 36.1922 -92.5094 90° East 475 547 45,000  Level Memphis Center
03:40PM 36.1886 -92.3447 92° East 475 547 45,000  Level Memphis Center
03:41PM 36.1850 -92.1803 92° East 475 547 45,000  Level Memphis Center
03:42PM 36.1786 -92.0361 93° East 475 547 45,000  Level Memphis Center
03:43PM 36.1703 -91.8689 93° East 475 547 45,000  Level Memphis Center
03:44PM 36.1661 -91.7017 92° East 481 554 45,000  Level Memphis Center
03:45PM 36.1656 -91.5319 90° East 486 559 45,000  Level Memphis Center
03:46PM 36.1589 -91.3492 93° East 486 559 45,000  Level Memphis Center
03:47PM 36.1517 -91.1769 93° East 491 565 45,000  Level Memphis Center
03:48PM 36.1486 -91.0072 91° East 496 571 45,000  Level Memphis Center
03:49PM 36.1411 -90.8325 93° East 496 571 45,000  Level Memphis Center
03:50PM 36.1353 -90.6603 92° East 496 571 45,000  Level Memphis Center
03:51PM 36.1294 -90.4856 92° East 496 571 45,000  Level Memphis Center
03:52PM 36.1211 -90.3108 93° East 496 571 45,000  Level Memphis Center
03:53PM 36.1147 -90.1386 93° East 496 571 45,000  Level Memphis Center
03:54PM 36.1081 -89.9717 93° East 496 571 45,000  Level Memphis Center
03:55PM 36.0989 -89.8022 94° East 496 571 45,000  Level Memphis Center
03:56PM 36.0919 -89.6353 93° East 496 571 45,000  Level Memphis Center
03:57PM 36.0867 -89.4786 92° East 501 577 45,000  Level Memphis Center
03:58PM 36.0769 -89.3092 94° East 496 571 45,000  Level Memphis Center
03:59PM 36.0692 -89.1347 93° East 496 571 45,000  Level Memphis Center
04:00PM 36.0611 -88.9628 93° East 496 571 45,000  Level Memphis Center
04:01PM 36.0528 -88.7933 93° East 496 571 45,000  Level Memphis Center
04:02PM 36.0442 -88.6267 94° East 496 571 45,000  Level Memphis Center
04:03PM 36.0378 -88.4575 93° East 496 571 45,000  Level Memphis Center
04:04PM 36.0286 -88.2908 94° East 496 571 45,000  Level Memphis Center
04:05PM 36.0194 -88.1142 94° East 491 565 45,000  Level Memphis Center
04:06PM 36.0100 -87.9450 94° East 484 557 45,000  Level Memphis Center
04:07PM 35.9983 -87.7786 95° East 484 557 45,000  Level Memphis Center
04:08PM 35.9864 -87.6094 95° East 484 557 45,000  Level Memphis Center
04:09PM 35.9761 -87.4406 94° East 489 563 45,000  Level Memphis Center
04:10PM 35.9639 -87.2719 95° East 494 568 45,000  Level Memphis Center
04:11PM 35.9511 -87.1031 95° East 494 568 45,000  Level Memphis Center
04:12PM 35.9403 -86.9369 95° East 494 568 45,000  Level Memphis Center
04:13PM 35.9294 -86.7681 94° East 494 568 45,000  Level Memphis Center
04:14PM 35.9161 -86.5994 96° East 494 568 45,000  Level Memphis Center
04:15PM 35.9044 -86.4283 95° East 494 568 45,000  Level Memphis Center
04:17PM 35.8806 -86.0889 95° East 501 577 45,000  Level Atlanta Center
04:18PM 35.8875 -85.9225 87° East 496 571 45,000  Level Atlanta Center
04:19PM 35.9189 -85.7644 76° East 482 555 45,000  Level Atlanta Center
04:20PM 35.9525 -85.6008 76° East 482 555 45,000  Level Atlanta Center
04:21PM 35.9878 -85.4375 75° East 487 560 45,000  Level Atlanta Center
04:22PM 36.0186 -85.2786 76° East 487 560 45,000  Level Atlanta Center
04:23PM 36.0536 -85.1122 75° East 487 560 45,000  Level Atlanta Center
04:24PM 36.0861 -84.9483 76° East 487 560 45,000  Level Atlanta Center
04:25PM 36.1144 -84.7994 77° East 487 560 45,000  Level Atlanta Center
04:26PM 36.1467 -84.6328 76° East 487 560 45,000  Level Atlanta Center
04:27PM 36.1764 -84.4683 77° East 487 560 45,000  Level Atlanta Center
04:28PM 36.2081 -84.3089 76° East 487 560 45,000  Level Atlanta Center
04:29PM 36.2375 -84.1469 77° East 487 560 45,000  Level Atlanta Center
04:30PM 36.2669 -83.9872 77° East 482 555 45,000  Level Atlanta Center
04:31PM 36.2958 -83.8275 77° East 475 547 45,000  Level Atlanta Center
04:32PM 36.3247 -83.6728 77° East 470 541 45,000 -720 Level Atlanta Center
04:33PM 36.3533 -83.5103 78° East 470 541 43,600 -1,500 Descending Atlanta Center
04:34PM 36.3817 -83.3503 78° East 475 547 42,000 -1,560 Descending Atlanta Center
04:35PM 36.4119 -83.1847 77° East 480 552 40,500 -1,500 Descending Atlanta Center
04:36PM 36.4419 -83.0167 77° East 485 558 39,000 -1,500 Descending Atlanta Center
04:37PM 36.4675 -82.8589 79° East 480 552 37,500 -1,500 Descending Atlanta Center
04:38PM 36.4972 -82.7036 77° East 466 536 36,100 -780 Descending Atlanta Center
04:39PM 36.5247 -82.5403 78° East 474 545 36,000 -540 Descending Atlanta Center
04:40PM 36.5578 -82.3614 77° East 480 552 35,100 -720 Descending Atlanta Center
04:41PM 36.5867 -82.2006 77° East 469 540 34,600 -1,020 Descending Atlanta Center
04:42PM 36.6133 -82.0369 78° East 469 540 33,100 -840 Descending Atlanta Center
04:43PM 36.6419 -81.8733 78° East 469 540 33,000 -600 Descending Atlanta Center
04:44PM 36.6706 -81.7300 76° East 469 540 31,900 -1,200 Descending Atlanta Center
04:45PM 36.7092 -81.5711 73° East 474 545 30,600 -1,320 Descending Atlanta Center
04:47PM 36.7522 -81.3805 74° East  Level FlightAware Approximate
04:47PM 36.7831 -81.2319 74° East 474 545 28,000  Level Atlanta Center
04:48PM 36.8211 -81.0672 74° East 474 545 28,000  Level Atlanta Center
04:49PM 36.8567 -80.9075 74° East 480 552 28,000 -900 Level Atlanta Center
04:51PM 36.9144 -80.6656 73° East 482 555 25,800 -1,200 Descending Washington Center
04:52PM 36.9500 -80.5144 74° East 462 532 25,000 -420 Descending Washington Center
04:53PM 36.9783 -80.3811 75° East 448 516 25,000 -540 Level Washington Center
04:54PM 37.0094 -80.2269 76° East 448 516 24,000 -1,260 Descending Washington Center
04:55PM 37.0403 -80.0753 76° East 448 516 22,500 -1,560 Descending Washington Center
04:56PM 36.9961 -79.9114 109° East 445 512 21,000 -780 Descending Washington Center
04:57PM 36.9469 -79.7708 114° Southeast 440 506 21,000  Level Washington Center
04:58PM 36.8953 -79.6306 115° Southeast 440 506 21,000  Level Washington Center
04:59PM 36.8517 -79.5036 113° Southeast 440 506 21,000  Level Washington Center
05:00PM 36.8019 -79.3636 114° Southeast 440 506 21,000 -300 Level Washington Center
05:01PM 36.7478 -79.2236 116° Southeast 440 506 20,400 -1,620 Descending Washington Center
05:02PM 36.7017 -79.0867 113° Southeast 445 512 17,900 -2,460 Descending Washington Center
05:03PM 36.6144 -79.0025 142° Southeast 393 452 15,600 -3,960 Descending Washington Center
05:04PM 36.5153 -78.9722 166° South 357 411 10,000 -1,920 Descending Washington Center
05:05PM 36.4242 -78.9478 168° South 343 395 11,800 240 Climbing Washington Center
05:06PM 36.3586 -78.8986 149° Southeast 320 368 10,500 -1,440 Descending Washington Center
05:07PM 36.2875 -78.8361 145° Southeast 299 344 9,000 -1,440 Descending Washington Center
05:08PM 36.2344 -78.7878 144° Southeast 278 320 7,700 -1,440 Descending Washington Center
05:09PM 36.1731 -78.7389 147° Southeast 264 304 6,200 -900 Descending Washington Center
05:10PM 36.1181 -78.6956 148° Southeast 249 287 6,000 -900 Descending Washington Center
05:11PM 36.0494 -78.6853 173° South 244 281 4,400 -1,620 Descending Washington Center
05:12PM 35.9822 -78.7006 190° South 239 275 2,800 -1,260 Descending Washington Center
05:13PM 35.9125 -78.7361 202° Southwest 197 227 1,800 -1,020 Descending Washington Center
05:14PM 35.8842 -78.7736 227° Southwest 118 136 700 -1,140 Descending Washington Center
05:16PM 35.8776 -78.7875 90° East  Level Estimated